• Join FlightAware (Why Join?)
  • Login
  • US Flag 
05:24PM EST


 

Airport Tracker/Info


-or-


 

Live Flight TrackerFlight Track Log ✈ OPT452 ✈ 20-Apr-2013 ✈ KCHS - KBED

Flight Track Log - Related Links

Times and Time Zones

All times are in EDT time to prevent confusion due to time zone crossing. See the OPT452 flight status page for this flight to view local times or setup timezone preferences in your user account.

Time Position Orientation Groundspeed Altitude Reporting Facility
EDT Latitude Longitude Course Direction KTS MPH feet Rate Location/Type
03:26PM 32.9286 -79.9919 31° Northeast 201 231 3,100  Level Jacksonville Center
03:27PM 32.9500 -79.9219 70° East 217 250 5,400 2,100 Climbing Jacksonville Center
03:28PM 32.9769 -79.8319 70° East 248 285 7,400 2,220 Climbing Jacksonville Center
03:29PM 33.0061 -79.7394 69° East 280 322 9,900 2,460 Climbing Jacksonville Center
03:30PM 33.0497 -79.6536 59° Northeast 292 336 12,400 1,920 Climbing Jacksonville Center
03:31PM 33.1086 -79.5844 45° Northeast 298 343 13,800 1,320 Climbing Jacksonville Center
03:32PM 33.2861 -79.3041 31° Northeast  Level FlightAware Approximate
03:32PM 33.1881 -79.5169 35° Northeast 313 360 15,100  Level Jacksonville Center
03:33PM 33.2697 -79.4469 36° Northeast 336 387 16,500 1,320 Climbing Jacksonville Center
03:34PM 33.3553 -79.3714 36° Northeast 362 417 17,800 1,200 Climbing Jacksonville Center
03:35PM 33.4408 -79.2933 37° Northeast 374 430 18,900 1,200 Climbing Jacksonville Center
03:36PM 33.5325 -79.2150 35° Northeast 388 447 20,200 1,260 Climbing Jacksonville Center
03:37PM 33.6261 -79.1336 36° Northeast 394 453 21,500 1,200 Climbing Jacksonville Center
03:38PM 33.7053 -79.0656 36° Northeast 394 453 22,700 1,200 Climbing Jacksonville Center
03:39PM 33.7989 -78.9839 36° Northeast 400 460 24,000 1,260 Climbing Jacksonville Center
03:40PM 33.8944 -78.9019 35° Northeast 406 467 25,300 1,320 Climbing Jacksonville Center
03:41PM 33.9897 -78.8153 37° Northeast 420 483 26,700 1,320 Climbing Jacksonville Center
03:42PM 34.0869 -78.7278 37° Northeast 426 490 28,000 1,320 Climbing Jacksonville Center
03:45PM 34.3089 -78.5336 36° Northeast 444 511 30,900 960 Climbing Washington Center
03:46PM 34.4133 -78.4392 37° Northeast 444 511 31,000  Climbing Washington Center
03:47PM 34.5242 -78.3397 36° Northeast 469 540 31,000 240 Level Washington Center
03:48PM 34.6369 -78.2375 37° Northeast 488 562 31,500 600 Climbing Washington Center
03:49PM 34.7419 -78.1169 43° Northeast 499 574 32,200 720 Climbing Washington Center
03:50PM 34.8364 -77.9883 48° Northeast 499 574 33,000 720 Climbing Washington Center
03:51PM 34.9306 -77.8669 47° Northeast 499 574 33,700 660 Climbing Washington Center
03:52PM 35.0308 -77.7456 45° Northeast 499 574 34,400 660 Climbing Washington Center
03:53PM 35.1289 -77.6261 45° Northeast 494 568 35,100 720 Climbing Washington Center
03:54PM 35.2247 -77.5067 45° Northeast 494 568 35,900 720 Climbing Washington Center
03:55PM 35.3183 -77.3867 46° Northeast 494 568 36,600 720 Climbing Washington Center
03:56PM 35.4219 -77.3022 34° Northeast 494 568 37,400 720 Climbing Washington Center
03:57PM 35.5400 -77.2156 31° Northeast 489 563 38,100 660 Climbing Washington Center
03:58PM 35.6558 -77.1308 31° Northeast 489 563 38,800 420 Climbing Washington Center
03:59PM 35.7694 -77.0461 31° Northeast 477 549 39,000 60 Climbing Washington Center
04:00PM 35.8894 -76.9558 31° Northeast 483 556 39,000  Level Washington Center
04:01PM 36.0117 -76.8656 31° Northeast 495 570 39,000  Level Washington Center
04:02PM 36.1356 -76.7725 31° Northeast 506 582 39,000  Level Washington Center
04:03PM 36.2658 -76.6764 31° Northeast 524 603 39,000  Level Washington Center
04:04PM 36.4044 -76.5753 30° Northeast 524 603 39,000  Level Washington Center
04:05PM 36.5325 -76.4761 32° Northeast 524 603 39,000 240 Level Washington Center
04:06PM 36.6561 -76.3842 31° Northeast 529 609 39,500 720 Climbing Washington Center
04:07PM 36.7631 -76.2972 33° Northeast 515 593 40,500 720 Climbing Washington Center
04:08PM 36.8742 -76.2125 31° Northeast 489 563 41,000 240 Climbing Washington Center
04:09PM 37.0081 -76.1458 22° Northeast 458 527 41,000  Level Washington Center
04:10PM 37.1231 -76.0817 24° Northeast 458 527 41,000  Level Washington Center
04:11PM 37.2442 -76.0172 23° Northeast 458 527 41,000  Level Washington Center
04:12PM 37.3633 -75.9550 23° Northeast 458 527 41,000  Level Washington Center
04:13PM 37.4825 -75.8875 24° Northeast 458 527 41,000  Level Washington Center
04:14PM 37.5994 -75.8147 26° Northeast 458 527 41,000  Level Washington Center
04:15PM 37.7183 -75.7258 31° Northeast 473 544 41,000  Level Washington Center
04:16PM 37.8311 -75.6417 31° Northeast 478 550 41,000  Level Washington Center
04:17PM 37.9478 -75.5522 31° Northeast 483 556 41,000  Level Washington Center
04:18PM 38.0667 -75.4572 32° Northeast 489 563 41,000  Level Washington Center
04:19PM 38.1769 -75.3433 39° Northeast 494 568 41,000  Level Washington Center
04:20PM 38.2872 -75.2319 38° Northeast 504 580 41,000  Level Washington Center
04:21PM 38.3828 -75.1203 42° Northeast 510 587 41,000  Level Washington Center
04:22PM 38.4928 -75.0056 39° Northeast 510 587 41,000  Level Washington Center
04:23PM 38.6047 -74.8903 39° Northeast 515 593 41,000  Level Washington Center
04:24PM 38.7167 -74.7747 39° Northeast 515 593 41,000  Level Washington Center
04:25PM 38.8261 -74.6511 41° Northeast 521 600 41,000  Level Washington Center
04:26PM 38.9378 -74.5347 39° Northeast 521 600 41,000  Level Washington Center
04:27PM 39.0492 -74.4156 40° Northeast 521 600 41,000  Level Washington Center
04:28PM 39.1583 -74.2961 40° Northeast 521 600 41,000  Level Washington Center
04:29PM 39.2694 -74.1733 41° Northeast 521 600 41,000  Level Washington Center
04:30PM 39.3786 -74.0531 40° Northeast 521 600 41,000  Level Washington Center
04:32PM 39.6147 -73.7919 40° Northeast 533 613 41,000  Level Boston Center
04:33PM 39.7222 -73.6700 41° Northeast 523 602 41,000  Level Boston Center
04:34PM 39.8339 -73.5478 40° Northeast 523 602 41,000 -60 Level Boston Center
04:35PM 39.9581 -73.4172 39° Northeast 517 595 40,900 -300 Descending Boston Center
04:36PM 40.0675 -73.2914 41° Northeast 517 595 40,400 -1,080 Descending Boston Center
04:37PM 40.1850 -73.1625 40° Northeast 523 602 38,800 -1,440 Descending Boston Center
04:38PM 40.2711 -73.0656 41° Northeast 546 628 37,600 -2,100 Descending Boston Center
04:39PM 40.4050 -72.9089 42° Northeast 546 628 34,700 -2,820 Descending Boston Center
04:40PM 40.5139 -72.7786 42° Northeast 539 620 32,000 -2,700 Descending Boston Center
04:41PM 40.6289 -72.6506 40° Northeast 539 620 29,400 -2,820 Descending Boston Center
04:42PM 40.7519 -72.5086 41° Northeast 534 615 26,400 -2,820 Descending Boston Center
04:43PM 40.8644 -72.3797 41° Northeast 534 615 23,800 -2,700 Descending Boston Center
04:44PM 40.9831 -72.2725 34° Northeast 528 608 21,100 -2,580 Descending Boston Center
04:45PM 41.0914 -72.2169 21° North 488 562 18,700 -2,040 Descending Boston Center
04:46PM 41.2017 -72.1697 18° North 438 504 17,100 -900 Descending Boston Center
04:47PM 41.3164 -72.1472 North 416 479 17,000 -300 Descending Boston Center
04:48PM 41.4414 -72.1300 North 416 479 16,600 -1,020 Descending Boston Center
04:49PM 41.5456 -72.1128 North 411 473 15,000 -840 Descending Boston Center
04:50PM 41.6600 -72.0983 North 383 441 15,000 -240 Level Boston Center
04:51PM 41.7664 -72.0867 North 379 436 14,600 -1,020 Descending Boston Center
04:52PM 41.8725 -72.0667 North 383 441 13,000 -1,560 Descending Boston Center
04:53PM 41.9642 -72.0519 North 376 433 11,600 -1,500 Descending Boston Center
04:53PM 42.0078 -72.0489 North 344 396 11,000 -1,620 Descending Boston Center
04:54PM 42.0619 -72.0403 North 332 382 10,000 -1,500 Descending Boston Center
04:54PM 42.0911 -72.0344 North 302 348 9,500 -1,860 Descending Boston Center
04:55PM 42.1722 -71.9583 35° Northeast 301 346 7,300 -2,040 Descending Boston Center
04:56PM 42.2322 -71.8933 39° Northeast 274 315 5,300 -1,200 Descending Boston Center
04:57PM 42.2842 -71.8339 40° Northeast 246 283 5,000 -120 Descending Boston Center
04:59PM 42.3833 -71.6833 48° Northeast 272 313 5,000  Level KA90
05:00PM 42.4167 -71.6000 62° Northeast 261 300 5,000 -180 Level KA90
05:01PM 42.4667 -71.5167 51° Northeast 280 322 4,700 -960 Descending KA90
05:02PM 42.5000 -71.4167 66° East 265 305 3,100 -840 Descending KA90
05:03PM 42.5167 -71.3333 75° East 234 269 3,000 -720 Descending KA90
05:04PM 42.5000 -71.2333 103° East 231 266 1,600 -900 Descending KA90
05:05PM 42.4833 -71.2000 124° Southeast 166 191 1,200 -600 Descending KA90
05:06PM 42.4667 -71.2500 246° West 122 140 500 -660 Descending KA90
05:08PM 42.4667 -71.2833 228° Southwest  Level FlightAware Approximate
05:15PM 42.4699 -71.2890 228° Southwest  Level Estimated